Pahoa, HI

9:48 AM HST on April 25, 2017 (GMT -1000)
Leilani Estates | | Change Station

Elev 768 ft 19.47 °N, 154.92 °W | Updated 29 seconds ago

Partly Cloudy
Partly Cloudy
84.8 °F
Feels Like 105 °F
N
6.0
Wind Variable Wind from NE

Today
High -- | Low -- °F
--% Chance of Precip.
Yesterday
High -- | Low -- °F
Precip. -- in
Pressure 30.13 in
Visibility 10.0 miles
Clouds Scattered Clouds 3500 ft
Mostly Cloudy 8000 ft
Mostly Cloudy 22000 ft
Heat Index 105 °F
Dew Point 84 °F
Humidity 98%
Rainfall 0.00 in
Snow Depth Not available.
5:54 AM 6:40 PM
Waning Crescent, 1% visible
METAR PHTO 251853Z COR 22003KT 10SM SCT035 BKN080 BKN220 26/18 A3013 RMK AO2 SLP201 T02610178
Pressure 30.13 in
Visibility 10.0 miles
Clouds Scattered Clouds 3500 ft
Mostly Cloudy 8000 ft
Mostly Cloudy 22000 ft
Heat Index 105 °F
Dew Point 84 °F
Humidity 98%
Rainfall 0.00 in
Snow Depth Not available.
5:54 AM 6:40 PM
Waning Crescent, 1% visible
METAR PHTO 251853Z COR 22003KT 10SM SCT035 BKN080 BKN220 26/18 A3013 RMK AO2 SLP201 T02610178

Get Severe Weather Alerts

Thanks for signing up!

Be on the lookout for a verification email in your inbox.

You'll start receiving the daily forecast at 8 AM.

×

10-Day Weather Forecast

Almanac

Astronomy

Apr. 25, 2017 Rise Set
Actual Time
Civil Twilight
Nautical Twilight
Astronomical Twilight
Moon
Length of Visible Light
Length of Day
Tomorrow will be .
, % of the Moon is Illuminated

Today's Extremes

State Highs State Lows

Community

WunderPhotos

WunderBlog® & News

Nearby

Air Quality

  Air Quality AQ Index Pollutant
Not available.

Snow Depth

Station Depth Elevation

Earthquake Activity

City Distance Mag. Time & Date
Minimum magnitude displayed is 2.5.

Coastal Water Temperatures

Place Temperature

Stations

Nearby Weather Stations

Station Location Temp. Windchill Dew Point Humidity Wind Precip. Elev Updated Type
                   

Watches & Warnings

There are currently no watches in effect.